Airport View

Enter AWOS ICAO identifier for current METAR.

ex. KFNL

KEKS 210015Z AUTO VRB04KT 6SM -RA OVC029 07/04 A3003 RMK AO2

21 Sep 2019 00:25

Frequency: 119.85

Phone: 406-682-3835

Other Area AWOS: KBZN - KDLN - KWYS - KLVM

TAF KEKS 202343Z 2100/2124 02009KT 5SM -SHRA BR OVC030 FM212200 25008KT P6SM FEW045 SCT100